Time;durP1;ratioP1;P1;durP2;ratioP2;P2;SDS_P1;SDS_P2;PMS_P1;PMS_P2;Temp;Humidity;BMP_temperature;BMP_pressure;BME280_temperature;BME280_humidity;BME280_pressure;Samples;Min_cycle;Max_cycle;Signal;HPM_P1;HPM_P2
2023/06/03 00:00:10;;;;;;;;;;;;;;;22.27;39.83;101861.72;5011011;28;4062;-71
2023/06/03 00:02:36;;;;;;;;;;;;;;;22.28;39.72;101863.22;5006399;28;4130;-71
2023/06/03 00:05:03;;;;;;;;;;;;;;;22.27;39.53;101858.84;5007200;28;4082;-71
2023/06/03 00:07:29;;;;;;;;;;;;;;;22.26;39.79;101854.44;5002088;28;4086;-72
2023/06/03 00:09:56;;;;;;;;;;;;;;;22.26;39.75;101854.44;5002546;28;4195;-71
2023/06/03 00:12:22;;;;;;;;;;;;;;;22.25;39.72;101853.69;5002039;28;3981;-71
2023/06/03 00:14:49;;;;;;;;;;;;;;;22.26;39.63;101863.84;5004555;28;4122;-72
2023/06/03 00:17:15;;;;;;;;;;;;;;;22.24;39.97;101862.97;5001032;28;4108;-71
2023/06/03 00:19:42;;;;;;;;;;;;;;;22.23;39.70;101862.25;5005573;28;3965;-70
2023/06/03 00:22:08;;;;;;;;;;;;;;;22.24;39.85;101862.97;5000900;28;3933;-71
2023/06/03 00:24:34;;;;;;;;;;;;;;;22.24;39.63;101862.97;5001337;28;4291;-72
2023/06/03 00:27:01;;;;;;;;;;;;;;;22.23;39.92;101864.38;5006364;28;4043;-72
2023/06/03 00:29:27;;;;;;;;;;;;;;;22.22;39.76;101862.88;5010610;28;3984;-71
2023/06/03 00:31:54;;;;;;;;;;;;;;;22.22;39.87;101871.53;5006755;28;4153;-71
2023/06/03 00:34:20;;;;;;;;;;;;;;;22.22;39.67;101860.75;5004093;28;4119;-70
2023/06/03 00:36:47;;;;;;;;;;;;;;;22.23;39.69;101855.72;5003855;28;4243;-71
2023/06/03 00:39:13;;;;;;;;;;;;;;;22.22;39.94;101862.88;5010059;28;3986;-71
2023/06/03 00:41:40;;;;;;;;;;;;;;;22.21;39.61;101862.13;5007560;28;4146;-70
2023/06/03 00:44:06;;;;;;;;;;;;;;;22.20;39.96;101869.28;5004659;28;4147;-72
2023/06/03 00:46:33;;;;;;;;;;;;;;;22.20;39.87;101857.72;5003319;28;3943;-72
2023/06/03 00:49:00;;;;;;;;;;;;;;;22.20;39.75;101862.75;5004300;28;3919;-72
2023/06/03 00:51:27;;;;;;;;;;;;;;;22.18;39.65;101867.00;5005621;28;4656;-71
2023/06/03 00:53:53;;;;;;;;;;;;;;;22.17;40.11;101865.53;4988586;28;4142;-72
2023/06/03 00:56:20;;;;;;;;;;;;;;;22.18;39.76;101867.00;5003443;28;4033;-71
2023/06/03 00:58:46;;;;;;;;;;;;;;;22.17;40.08;101879.94;5003059;28;4148;-72
2023/06/03 01:01:13;;;;;;;;;;;;;;;22.18;39.85;101872.03;5010756;28;4137;-72
2023/06/03 01:03:43;;;;;;;;;;;;;;;22.17;40.07;101865.53;5007508;28;3973;-72
2023/06/03 01:06:24;;;;;;;;;;;;;;;22.15;39.90;101874.06;4998988;28;4130;-71
2023/06/03 01:08:55;;;;;;;;;;;;;;;22.16;39.98;101869.78;5002336;28;4093;-72
2023/06/03 01:11:28;;;;;;;;;;;;;;;22.15;39.99;101874.06;4990117;28;4108;-71
2023/06/03 01:14:01;;;;;;;;;;;;;;;22.16;39.88;101869.03;4999484;28;4037;-71
2023/06/03 01:16:27;;;;;;;;;;;;;;;22.15;39.92;101876.19;4992359;28;4265;-71
2023/06/03 01:18:55;;;;;;;;;;;;;;;22.13;40.15;101878.97;4989082;28;4079;-71
2023/06/03 01:21:34;;;;;;;;;;;;;;;22.12;40.16;101872.44;5005992;28;4099;-72
2023/06/03 01:24:00;;;;;;;;;;;;;;;22.14;39.91;101874.69;4999609;28;4186;-73
2023/06/03 01:26:28;;;;;;;;;;;;;;;22.12;39.84;101878.22;5003964;28;3931;-72
2023/06/03 01:28:55;;;;;;;;;;;;;;;22.10;40.19;101875.22;4997641;28;4136;-74
2023/06/03 01:31:21;;;;;;;;;;;;;;;22.11;40.18;101879.59;5005969;28;4035;-77
2023/06/03 01:33:48;;;;;;;;;;;;;;;22.12;39.96;101880.34;5000711;28;4236;-77
2023/06/03 01:36:14;;;;;;;;;;;;;;;22.10;40.24;101878.09;5006110;28;4055;-77
2023/06/03 01:38:41;;;;;;;;;;;;;;;22.10;40.10;101875.22;4997865;28;4195;-76
2023/06/03 01:41:08;;;;;;;;;;;;;;;22.10;40.25;101883.84;5005078;28;4218;-77
2023/06/03 01:43:35;;;;;;;;;;;;;;;22.09;40.25;101873.72;5004019;28;3937;-77
2023/06/03 01:46:01;;;;;;;;;;;;;;;22.08;40.26;101877.22;5005426;28;4111;-77
2023/06/03 01:48:28;;;;;;;;;;;;;;;22.08;40.09;101869.34;5009210;28;5020;-77
2023/06/03 01:50:54;;;;;;;;;;;;;;;22.07;40.12;101879.38;5002815;28;4111;-76
2023/06/03 01:53:21;;;;;;;;;;;;;;;22.07;40.18;101885.16;5013731;28;4412;-76
2023/06/03 01:55:47;;;;;;;;;;;;;;;22.07;40.05;101884.41;5004839;28;4238;-76
2023/06/03 01:58:15;;;;;;;;;;;;;;;22.05;40.12;101882.13;5015143;28;4080;-76
2023/06/03 02:00:42;;;;;;;;;;;;;;;22.05;40.19;101879.25;5008675;28;3940;-76
2023/06/03 02:03:08;;;;;;;;;;;;;;;22.05;40.08;101887.91;4993592;28;5289;-76
2023/06/03 02:05:35;;;;;;;;;;;;;;;22.05;40.00;101881.41;5009762;28;4024;-77
2023/06/03 02:08:02;;;;;;;;;;;;;;;22.04;40.08;101882.78;5010582;28;4108;-77
2023/06/03 02:10:28;;;;;;;;;;;;;;;22.04;40.27;101880.66;5013293;28;3961;-76
2023/06/03 02:12:55;;;;;;;;;;;;;;;22.03;40.42;101887.78;5010977;28;3952;-75
2023/06/03 02:15:21;;;;;;;;;;;;;;;22.03;40.21;101884.91;5009238;28;3950;-75
2023/06/03 02:17:48;;;;;;;;;;;;;;;22.04;40.08;101885.69;5023210;28;4042;-75
2023/06/03 02:20:15;;;;;;;;;;;;;;;22.02;40.48;101886.31;5008620;28;3946;-75
2023/06/03 02:22:42;;;;;;;;;;;;;;;22.02;40.20;101874.78;5006689;28;4061;-77
2023/06/03 02:25:08;;;;;;;;;;;;;;;22.02;40.53;101883.41;5011800;28;4044;-77
2023/06/03 02:27:35;;;;;;;;;;;;;;;22.00;40.46;101888.34;5015908;28;3935;-76
2023/06/03 02:30:01;;;;;;;;;;;;;;;22.00;40.30;101885.44;4999644;28;3949;-76
2023/06/03 02:32:27;;;;;;;;;;;;;;;22.00;40.25;101879.69;5008852;28;5018;-77
2023/06/03 02:34:54;;;;;;;;;;;;;;;21.99;40.51;101878.16;5015421;28;4170;-77
2023/06/03 02:37:22;;;;;;;;;;;;;;;21.99;40.15;101887.59;5005423;28;4013;-78
2023/06/03 02:39:48;;;;;;;;;;;;;;;22.00;40.41;101880.44;5024924;28;3951;-78
2023/06/03 02:42:15;;;;;;;;;;;;;;;22.00;40.31;101880.44;5011392;28;4173;-77
2023/06/03 02:44:41;;;;;;;;;;;;;;;21.99;40.17;101878.94;5007638;28;3925;-77
2023/06/03 02:47:09;;;;;;;;;;;;;;;22.00;40.29;101883.31;5017072;28;4095;-77
2023/06/03 02:49:36;;;;;;;;;;;;;;;21.99;40.48;101876.06;5012314;28;3955;-77
2023/06/03 02:52:05;;;;;;;;;;;;;;;21.98;40.53;101876.69;5011197;28;4034;-77
2023/06/03 02:54:31;;;;;;;;;;;;;;;21.98;40.39;101882.44;5008745;28;4137;-77
2023/06/03 02:56:57;;;;;;;;;;;;;;;21.96;40.42;101877.31;5008953;28;4212;-77
2023/06/03 02:59:24;;;;;;;;;;;;;;;21.96;40.49;101875.16;5017498;28;4057;-78
2023/06/03 03:01:51;;;;;;;;;;;;;;;21.95;40.36;101879.44;5003854;28;4259;-78
2023/06/03 03:04:17;;;;;;;;;;;;;;;21.96;40.42;101891.72;5005489;28;4025;-77
2023/06/03 03:06:44;;;;;;;;;;;;;;;21.95;40.61;101884.47;5008458;28;4174;-77
2023/06/03 03:09:10;;;;;;;;;;;;;;;21.95;40.60;101887.34;5009913;28;3947;-77
2023/06/03 03:11:41;;;;;;;;;;;;;;;21.94;40.55;101883.72;5007639;28;3895;-77
2023/06/03 03:14:08;;;;;;;;;;;;;;;21.94;40.59;101875.06;5011599;28;5080;-76
2023/06/03 03:16:36;;;;;;;;;;;;;;;21.94;40.39;101877.97;5003446;28;4037;-75
2023/06/03 03:19:03;;;;;;;;;;;;;;;21.94;40.55;101888.72;5010684;28;4668;-78
2023/06/03 03:21:30;;;;;;;;;;;;;;;21.93;40.46;101885.09;5008609;28;4011;-77
2023/06/03 03:24:00;;;;;;;;;;;;;;;21.93;40.48;101884.34;5002361;28;4002;-76
2023/06/03 03:26:28;;;;;;;;;;;;;;;21.92;40.51;101891.50;5005768;28;4020;-77
2023/06/03 03:28:55;;;;;;;;;;;;;;;21.91;40.51;101896.50;4994046;28;4046;-77
2023/06/03 03:31:23;;;;;;;;;;;;;;;21.92;40.65;101891.50;5003747;28;3977;-76
2023/06/03 03:33:50;;;;;;;;;;;;;;;21.92;40.67;101897.25;5000274;28;4210;-77
2023/06/03 03:36:21;;;;;;;;;;;;;;;21.89;40.60;101887.00;5006652;28;4063;-77
2023/06/03 03:39:02;;;;;;;;;;;;;;;21.91;40.61;101895.78;4994479;28;4420;-77
2023/06/03 03:41:32;;;;;;;;;;;;;;;21.90;40.53;101891.41;4985911;28;3932;-77
2023/06/03 03:43:59;;;;;;;;;;;;;;;21.90;40.81;101897.16;5012929;28;4094;-76
2023/06/03 03:46:26;;;;;;;;;;;;;;;21.89;40.47;101892.78;5003257;28;4057;-77
2023/06/03 03:48:52;;;;;;;;;;;;;;;21.89;40.62;101890.63;4993543;28;4049;-77
2023/06/03 03:51:19;;;;;;;;;;;;;;;21.89;40.74;101901.41;5001270;28;3948;-77
2023/06/03 03:53:46;;;;;;;;;;;;;;;21.88;40.64;101905.69;5003215;28;4954;-77
2023/06/03 03:56:20;;;;;;;;;;;;;;;21.88;40.83;101903.56;4986304;28;3996;-77
2023/06/03 03:58:52;;;;;;;;;;;;;;;21.89;40.77;101904.31;5012243;28;4749;-77
2023/06/03 04:01:23;;;;;;;;;;;;;;;21.86;40.67;101908.47;5010661;28;4221;-76
2023/06/03 04:03:56;;;;;;;;;;;;;;;21.86;40.83;101906.31;4999620;28;4094;-76
2023/06/03 04:06:32;;;;;;;;;;;;;;;21.84;40.83;101908.34;5004330;28;4055;-77
2023/06/03 04:09:00;;;;;;;;;;;;;;;21.84;40.61;101903.31;5010744;28;4827;-77
2023/06/03 04:11:27;;;;;;;;;;;;;;;21.85;40.81;101909.84;5006409;28;3936;-76
2023/06/03 04:14:00;;;;;;;;;;;;;;;21.83;40.76;101907.59;5002403;28;4052;-76
2023/06/03 04:16:42;;;;;;;;;;;;;;;21.83;40.71;101906.84;5006770;28;4344;-76
2023/06/03 04:19:19;;;;;;;;;;;;;;;21.84;40.71;101914.13;5003659;28;4154;-76
2023/06/03 04:21:46;;;;;;;;;;;;;;;21.83;40.94;101912.59;5002208;28;4080;-77
2023/06/03 04:24:12;;;;;;;;;;;;;;;21.82;40.93;101908.97;5002243;28;4317;-77
2023/06/03 04:26:41;;;;;;;;;;;;;;;21.83;40.75;101918.38;4986826;28;3974;-76
2023/06/03 04:29:08;;;;;;;;;;;;;;;21.83;40.76;101915.47;5010913;28;4037;-77
2023/06/03 04:31:34;;;;;;;;;;;;;;;21.82;40.63;101922.66;4987365;28;4135;-77
2023/06/03 04:34:01;;;;;;;;;;;;;;;21.79;40.67;101918.16;5004311;28;4481;-76
2023/06/03 04:36:28;;;;;;;;;;;;;;;21.79;40.42;101929.69;5003839;28;4072;-76
2023/06/03 04:38:55;;;;;;;;;;;;;;;21.79;40.81;101918.16;5010908;28;4113;-76
2023/06/03 04:41:22;;;;;;;;;;;;;;;21.82;40.60;101908.22;5014238;28;3939;-77
2023/06/03 04:43:52;;;;;;;;;;;;;;;21.80;40.95;101913.88;5010201;28;4045;-76
2023/06/03 04:46:19;;;;;;;;;;;;;;;21.81;40.79;101909.63;5008299;28;3940;-76
2023/06/03 04:48:47;;;;;;;;;;;;;;;21.81;41.04;101909.63;4999167;28;4272;-77
2023/06/03 04:51:13;;;;;;;;;;;;;;;21.80;40.81;101908.13;5000500;28;4432;-76
2023/06/03 04:53:42;;;;;;;;;;;;;;;21.81;40.73;101912.50;5008832;28;3964;-76
2023/06/03 04:56:09;;;;;;;;;;;;;;;21.81;40.86;101912.50;5002547;28;4166;-76
2023/06/03 04:58:40;;;;;;;;;;;;;;;21.81;40.80;101915.41;5001808;28;3925;-76
2023/06/03 05:01:10;;;;;;;;;;;;;;;21.78;40.97;101911.63;5004575;28;4053;-76
2023/06/03 05:03:38;;;;;;;;;;;;;;;21.81;40.96;101915.41;5003486;28;4312;-76
2023/06/03 05:06:10;;;;;;;;;;;;;;;21.81;41.04;101918.28;5006349;28;4079;-78
2023/06/03 05:08:39;;;;;;;;;;;;;;;21.80;40.81;101913.88;5007189;28;4003;-78
2023/06/03 05:11:05;;;;;;;;;;;;;;;21.79;41.02;101915.28;4987588;28;4050;-78
2023/06/03 05:13:34;;;;;;;;;;;;;;;21.78;40.91;101916.66;5009051;28;4152;-78
2023/06/03 05:16:00;;;;;;;;;;;;;;;21.79;40.98;101918.16;5006820;28;4088;-78
2023/06/03 05:18:30;;;;;;;;;;;;;;;21.77;40.82;101909.41;5019687;28;4329;-77
2023/06/03 05:20:56;;;;;;;;;;;;;;;21.78;40.95;101910.88;4985049;28;4035;-77
2023/06/03 05:23:23;;;;;;;;;;;;;;;21.78;41.16;101908.00;5005088;28;3930;-76
2023/06/03 05:25:49;;;;;;;;;;;;;;;21.75;41.15;101907.88;5001082;28;4168;-77
2023/06/03 05:28:16;;;;;;;;;;;;;;;21.77;41.01;101912.28;5004722;28;4157;-77
2023/06/03 05:30:42;;;;;;;;;;;;;;;21.75;40.98;101907.88;5004980;28;4259;-77
2023/06/03 05:33:08;;;;;;;;;;;;;;;21.76;41.24;101914.38;5011128;28;4008;-77
2023/06/03 05:35:39;;;;;;;;;;;;;;;21.76;40.84;101911.50;5009350;28;4131;-77
2023/06/03 05:38:07;;;;;;;;;;;;;;;21.75;41.01;101910.75;5000378;28;4123;-77
2023/06/03 05:40:34;;;;;;;;;;;;;;;21.74;41.17;101915.03;5008925;28;4128;-76
2023/06/03 05:43:00;;;;;;;;;;;;;;;21.74;41.04;101909.28;5003133;28;4042;-77
2023/06/03 05:45:27;;;;;;;;;;;;;;;21.75;41.03;101904.25;5008122;28;4190;-78
2023/06/03 05:47:54;;;;;;;;;;;;;;;21.75;41.14;101913.66;5010302;28;4114;-78
2023/06/03 05:50:20;;;;;;;;;;;;;;;21.73;41.29;101904.88;4997961;28;3973;-78
2023/06/03 05:52:47;;;;;;;;;;;;;;;21.74;41.03;101906.38;5005854;28;3909;-77
2023/06/03 05:55:14;;;;;;;;;;;;;;;21.73;41.31;101899.09;5004041;28;4039;-77
2023/06/03 05:57:40;;;;;;;;;;;;;;;21.73;41.02;101898.38;5003216;28;4089;-77
2023/06/03 06:00:07;;;;;;;;;;;;;;;21.73;41.21;101904.13;4993044;28;4111;-77
2023/06/03 06:02:39;;;;;;;;;;;;;;;21.73;41.05;101901.25;5004748;28;4366;-76
2023/06/03 06:05:06;;;;;;;;;;;;;;;21.72;41.07;101903.38;5021420;28;5571;-77
2023/06/03 06:07:33;;;;;;;;;;;;;;;21.72;41.03;101900.50;5007166;28;4180;-77
2023/06/03 06:09:59;;;;;;;;;;;;;;;21.72;41.31;101903.38;5005083;28;4446;-77
2023/06/03 06:12:26;;;;;;;;;;;;;;;21.73;41.21;101904.13;5005892;28;4019;-77
2023/06/03 06:14:52;;;;;;;;;;;;;;;21.73;40.92;101898.38;5005904;28;4038;-77
2023/06/03 06:17:20;;;;;;;;;;;;;;;21.73;41.05;101904.88;5007380;28;3964;-77
2023/06/03 06:19:47;;;;;;;;;;;;;;;21.73;41.01;101904.88;4990130;28;4072;-77
2023/06/03 06:22:13;;;;;;;;;;;;;;;21.72;41.04;101905.53;5006995;28;4042;-77
2023/06/03 06:24:40;;;;;;;;;;;;;;;21.71;41.32;101907.63;5002220;28;4006;-77
2023/06/03 06:27:07;;;;;;;;;;;;;;;21.70;41.25;101900.38;5002183;28;4633;-77
2023/06/03 06:29:34;;;;;;;;;;;;;;;21.71;41.09;101901.88;5003347;28;3985;-77
2023/06/03 06:32:01;;;;;;;;;;;;;;;21.71;41.13;101904.75;4999412;28;4058;-77
2023/06/03 06:34:31;;;;;;;;;;;;;;;21.71;41.07;101904.75;5007759;28;3985;-77
2023/06/03 06:36:58;;;;;;;;;;;;;;;21.71;41.23;101913.41;5009844;28;4209;-77
2023/06/03 06:39:34;;;;;;;;;;;;;;;21.71;41.00;101916.28;5009794;28;3915;-76
2023/06/03 06:42:26;;;;;;;;;;;;;;;21.71;41.43;101910.53;5003344;28;3956;-76
2023/06/03 06:44:55;;;;;;;;;;;;;;;21.70;41.18;101914.81;5011647;28;4081;-77
2023/06/03 06:47:23;;;;;;;;;;;;;;;21.71;41.35;101907.63;4999074;28;4176;-77
2023/06/03 06:49:52;;;;;;;;;;;;;;;21.70;41.14;101911.91;5004085;28;4077;-77
2023/06/03 06:52:21;;;;;;;;;;;;;;;21.70;41.35;101911.16;5001278;28;4270;-77
2023/06/03 06:54:49;;;;;;;;;;;;;;;21.70;41.14;101911.16;5003076;28;4160;-76
2023/06/03 06:57:21;;;;;;;;;;;;;;;21.69;41.22;101907.53;5020091;28;4052;-77
2023/06/03 06:59:51;;;;;;;;;;;;;;;21.70;41.28;101911.16;4985062;28;4073;-76
2023/06/03 07:02:18;;;;;;;;;;;;;;;21.69;41.16;101903.88;5003414;28;4148;-77
2023/06/03 07:04:44;;;;;;;;;;;;;;;21.69;41.02;101904.66;5000469;28;4050;-77
2023/06/03 07:07:12;;;;;;;;;;;;;;;21.70;41.14;101914.81;4999626;28;4110;-76
2023/06/03 07:09:39;;;;;;;;;;;;;;;21.70;41.36;101916.94;5012610;28;4189;-77
2023/06/03 07:12:06;;;;;;;;;;;;;;;21.69;41.24;101919.06;5002693;28;4058;-76
2023/06/03 07:14:32;;;;;;;;;;;;;;;21.68;41.15;101906.03;5009503;28;4667;-77
2023/06/03 07:16:59;;;;;;;;;;;;;;;21.68;41.61;101908.91;5004487;28;4115;-77
2023/06/03 07:19:26;;;;;;;;;;;;;;;21.71;41.36;101901.88;5005413;28;3961;-72
2023/06/03 07:21:52;;;;;;;;;;;;;;;21.71;41.14;101901.13;5000006;28;4194;-76
2023/06/03 07:24:20;;;;;;;;;;;;;;;21.64;40.84;101907.94;5008573;28;4208;-78
2023/06/03 07:26:49;;;;;;;;;;;;;;;21.60;40.15;101905.56;4998487;28;4236;-78
2023/06/03 07:29:15;;;;;;;;;;;;;;;21.74;40.14;101920.81;4999895;28;4145;-74
2023/06/03 07:31:42;;;;;;;;;;;;;;;21.79;40.47;101909.50;5006010;28;4428;-74
2023/06/03 07:34:10;;;;;;;;;;;;;;;21.79;40.29;101903.75;4998631;28;4123;-78
2023/06/03 07:36:42;;;;;;;;;;;;;;;21.80;39.62;101900.22;5000876;28;4428;-67
2023/06/03 07:39:09;;;;;;;;;;;;;;;21.82;40.21;101911.13;5006599;28;4801;-67
2023/06/03 07:41:41;;;;;;;;;;;;;;;21.84;39.49;101902.59;4991004;28;4213;-68
2023/06/03 07:44:14;;;;;;;;;;;;;;;21.81;39.63;101903.88;5004055;28;4085;-68
2023/06/03 07:46:41;;;;;;;;;;;;;;;21.79;39.07;101909.50;5006701;28;3988;-68
2023/06/03 07:49:15;;;;;;;;;;;;;;;21.80;38.20;101905.22;5004392;28;4218;-68
2023/06/03 07:51:43;;;;;;;;;;;;;;;21.70;36.62;101903.25;5010203;28;4133;-68
2023/06/03 07:54:10;;;;;;;;;;;;;;;21.64;35.80;101897.13;5010868;28;4276;-69
2023/06/03 07:56:36;;;;;;;;;;;;;;;21.64;35.56;101900.03;5010756;28;4203;-69
2023/06/03 07:59:03;;;;;;;;;;;;;;;21.72;34.66;101900.50;5003231;28;4171;-70
2023/06/03 08:01:29;;;;;;;;;;;;;;;21.69;34.85;101904.66;5001233;28;4062;-69
2023/06/03 08:03:56;;;;;;;;;;;;;;;21.70;34.92;101896.75;5006899;28;4200;-67
2023/06/03 08:06:22;;;;;;;;;;;;;;;21.70;35.18;101897.50;5002394;28;4068;-69
2023/06/03 08:08:48;;;;;;;;;;;;;;;21.75;34.61;101901.38;5005459;28;4133;-69
2023/06/03 08:11:15;;;;;;;;;;;;;;;21.73;35.06;101896.22;5000450;28;4172;-71
2023/06/03 08:13:41;;;;;;;;;;;;;;;21.77;35.91;101892.84;5005160;28;4164;-69
2023/06/03 08:16:08;;;;;;;;;;;;;;;21.75;36.02;101902.09;5004984;28;4433;-69
2023/06/03 08:18:37;;;;;;;;;;;;;;;21.80;36.02;101902.34;5012978;28;4152;-69
2023/06/03 08:21:04;;;;;;;;;;;;;;;21.75;36.45;101902.09;5009246;28;4123;-70
2023/06/03 08:23:32;;;;;;;;;;;;;;;21.67;36.32;101901.66;5006283;28;5049;-71
2023/06/03 08:25:59;;;;;;;;;;;;;;;19.52;34.31;101902.75;5005070;28;4110;-71
2023/06/03 08:28:25;;;;;;;;;;;;;;;19.01;33.18;101910.81;5002236;28;4109;-72
2023/06/03 08:30:53;;;;;;;;;;;;;;;18.86;34.44;101909.09;5009052;28;4145;-71
2023/06/03 08:33:19;;;;;;;;;;;;;;;19.11;33.98;101900.03;5008323;28;4175;-72
2023/06/03 08:35:45;;;;;;;;;;;;;;;18.91;33.63;101907.25;5009139;28;4230;-72
2023/06/03 08:38:13;;;;;;;;;;;;;;;18.87;33.72;101901.22;5009605;28;4368;-72
2023/06/03 08:40:40;;;;;;;;;;;;;;;19.20;33.37;101902.09;5012643;28;4095;-71
2023/06/03 08:43:06;;;;;;;;;;;;;;;18.81;32.89;101898.69;5002465;28;4151;-71
2023/06/03 08:45:36;;;;;;;;;;;;;;;19.63;33.45;101907.81;5006752;28;4500;-69
2023/06/03 08:48:06;;;;;;;;;;;;;;;20.44;32.85;101899.31;5009068;28;4082;-68
2023/06/03 08:50:33;;;;;;;;;;;;;;;20.65;32.18;101907.84;5006839;28;3895;-68
2023/06/03 08:53:03;;;;;;;;;;;;;;;20.75;32.10;101904.09;5001938;28;4102;-69
2023/06/03 08:55:29;;;;;;;;;;;;;;;20.79;31.55;101905.06;5004539;28;4121;-68
2023/06/03 08:58:10;;;;;;;;;;;;;;;20.83;31.75;101911.09;5003033;28;3878;-69
2023/06/03 09:00:36;;;;;;;;;;;;;;;20.85;31.36;101908.34;5008964;28;4098;-69
2023/06/03 09:03:03;;;;;;;;;;;;;;;20.85;30.76;101901.84;5003156;28;4129;-67
2023/06/03 09:05:29;;;;;;;;;;;;;;;20.99;30.95;101896.19;5006594;28;4176;-68
2023/06/03 09:07:56;;;;;;;;;;;;;;;21.10;30.96;101896.16;5002017;28;5252;-68
2023/06/03 09:10:25;;;;;;;;;;;;;;;21.14;31.39;101898.53;5004865;28;5142;-67
2023/06/03 09:12:54;;;;;;;;;;;;;;;21.23;31.04;101894.75;4997322;28;4476;-67
2023/06/03 09:15:21;;;;;;;;;;;;;;;21.27;31.56;101892.09;5004020;28;4166;-67
2023/06/03 09:17:47;;;;;;;;;;;;;;;21.32;31.87;101893.84;4999757;28;4669;-67
2023/06/03 09:20:14;;;;;;;;;;;;;;;21.38;31.87;101886.94;5002969;28;3955;-68
2023/06/03 09:22:41;;;;;;;;;;;;;;;21.41;31.85;101883.56;5000247;28;4295;-68
2023/06/03 09:25:07;;;;;;;;;;;;;;;21.43;31.91;101877.19;5000680;28;4511;-67
2023/06/03 09:27:34;;;;;;;;;;;;;;;21.45;32.16;101874.44;5001445;28;4138;-68
2023/06/03 09:30:04;;;;;;;;;;;;;;;21.46;31.95;101881.69;5003228;28;4395;-68
2023/06/03 09:32:30;;;;;;;;;;;;;;;21.48;32.53;101868.13;5003421;28;4122;-68
2023/06/03 09:34:57;;;;;;;;;;;;;;;21.50;32.80;101876.16;5005083;28;4515;-67
2023/06/03 09:37:24;;;;;;;;;;;;;;;21.45;33.47;101868.66;5006353;28;4094;-68
2023/06/03 09:39:58;;;;;;;;;;;;;;;21.49;34.00;101863.88;5003371;28;4118;-68
2023/06/03 09:42:43;;;;;;;;;;;;;;;21.52;33.97;101867.63;5004193;28;4240;-68
2023/06/03 09:45:26;;;;;;;;;;;;;;;21.54;34.19;101862.72;5005108;28;4126;-68
2023/06/03 09:47:53;;;;;;;;;;;;;;;21.56;34.73;101879.41;5008975;28;4120;-68
2023/06/03 09:50:20;;;;;;;;;;;;;;;21.57;35.04;101875.13;5002845;28;4052;-68
2023/06/03 09:52:46;;;;;;;;;;;;;;;21.58;35.01;101876.63;5004745;28;4220;-68
2023/06/03 09:55:13;;;;;;;;;;;;;;;21.60;35.26;101882.53;5004537;28;4005;-68
2023/06/03 09:57:40;;;;;;;;;;;;;;;21.60;35.86;101879.63;5007338;28;4580;-68
2023/06/03 10:00:07;;;;;;;;;;;;;;;21.61;35.96;101880.38;5004774;28;4143;-68
2023/06/03 10:02:36;;;;;;;;;;;;;;;21.63;36.04;101886.25;5007577;28;3961;-67
2023/06/03 10:05:02;;;;;;;;;;;;;;;21.63;36.51;101871.84;5004394;28;4464;-68
2023/06/03 10:07:29;;;;;;;;;;;;;;;21.63;36.29;101884.13;5004529;28;4016;-68
2023/06/03 10:10:05;;;;;;;;;;;;;;;21.64;36.42;101868.31;5002827;28;4164;-68
2023/06/03 10:12:31;;;;;;;;;;;;;;;21.64;36.85;101862.56;5002613;28;4314;-68
2023/06/03 10:15:00;;;;;;;;;;;;;;;21.65;36.82;101881.38;5005358;28;4986;-68
2023/06/03 10:17:27;;;;;;;;;;;;;;;21.66;36.81;101859.78;4999182;28;3977;-67
2023/06/03 10:19:53;;;;;;;;;;;;;;;21.68;36.84;101871.44;5007003;28;4129;-68
2023/06/03 10:22:20;;;;;;;;;;;;;;;21.69;36.89;101863.53;4999716;28;4082;-67
2023/06/03 10:24:49;;;;;;;;;;;;;;;21.71;36.87;101873.03;5003249;28;4227;-68
2023/06/03 10:27:16;;;;;;;;;;;;;;;21.70;37.09;101860.03;5010337;28;4161;-68
2023/06/03 10:29:43;;;;;;;;;;;;;;;21.72;37.12;101860.13;5005162;28;4179;-68
2023/06/03 10:32:10;;;;;;;;;;;;;;;21.73;37.23;101855.13;5008269;28;3982;-67
2023/06/03 10:34:38;;;;;;;;;;;;;;;21.72;37.29;101857.25;5006110;28;4036;-68
2023/06/03 10:37:05;;;;;;;;;;;;;;;21.73;37.34;101858.75;5012005;28;4162;-67
2023/06/03 10:39:31;;;;;;;;;;;;;;;21.74;37.53;101856.63;5005753;28;4484;-67
2023/06/03 10:41:58;;;;;;;;;;;;;;;21.75;37.35;101855.97;5005713;28;4331;-68
2023/06/03 10:44:24;;;;;;;;;;;;;;;21.77;37.38;101861.13;5005810;28;4936;-68
2023/06/03 10:46:55;;;;;;;;;;;;;;;21.76;37.57;101848.06;5008715;28;4088;-68
2023/06/03 10:49:22;;;;;;;;;;;;;;;21.77;37.72;101848.84;5007460;28;3903;-68
2023/06/03 10:51:54;;;;;;;;;;;;;;;21.78;37.71;101848.19;5005793;28;4352;-68
2023/06/03 10:54:28;;;;;;;;;;;;;;;21.79;37.63;101854.72;4998857;28;4258;-70
2023/06/03 10:56:59;;;;;;;;;;;;;;;21.82;37.61;101847.69;5004573;28;3952;-69
2023/06/03 10:59:27;;;;;;;;;;;;;;;21.82;37.86;101839.03;5006132;28;4193;-69
2023/06/03 11:01:54;;;;;;;;;;;;;;;21.83;38.11;101838.41;5008122;28;4980;-69
2023/06/03 11:04:20;;;;;;;;;;;;;;;21.83;37.47;101831.88;5006326;28;4101;-69
2023/06/03 11:06:47;;;;;;;;;;;;;;;21.87;37.77;101832.09;5002424;28;4203;-69
2023/06/03 11:09:16;;;;;;;;;;;;;;;21.81;38.00;101835.41;4999536;28;4112;-69
2023/06/03 11:11:48;;;;;;;;;;;;;;;21.83;38.16;101832.63;4998678;28;3930;-67
2023/06/03 11:14:30;;;;;;;;;;;;;;;21.84;38.38;101833.38;5002533;28;4106;-68
2023/06/03 11:16:56;;;;;;;;;;;;;;;21.82;38.24;101821.72;5007412;28;4111;-68
2023/06/03 11:19:26;;;;;;;;;;;;;;;21.83;38.26;101820.34;5008507;28;4234;-68
2023/06/03 11:21:53;;;;;;;;;;;;;;;21.83;38.10;101831.88;5003112;28;4337;-68
2023/06/03 11:24:38;;;;;;;;;;;;;;;21.82;38.43;101824.63;4998566;28;4223;-68
2023/06/03 11:27:13;;;;;;;;;;;;;;;21.84;38.55;101827.63;5005071;28;5750;-66
2023/06/03 11:29:48;;;;;;;;;;;;;;;21.84;38.60;101822.59;5008884;28;4004;-66
2023/06/03 11:32:15;;;;;;;;;;;;;;;21.81;38.56;101823.13;5007901;28;3996;-65
2023/06/03 11:34:42;;;;;;;;;;;;;;;21.80;38.32;101827.38;5004485;28;4126;-66
2023/06/03 11:37:09;;;;;;;;;;;;;;;21.78;38.67;101819.34;5006415;28;4112;-66
2023/06/03 11:39:54;;;;;;;;;;;;;;;21.77;38.35;101811.38;5008360;28;4636;-66
2023/06/03 11:42:21;;;;;;;;;;;;;;;21.77;38.30;101811.38;5003839;28;4057;-66
2023/06/03 11:44:47;;;;;;;;;;;;;;;21.77;38.30;101799.84;5005103;28;4196;-66
2023/06/03 11:47:13;;;;;;;;;;;;;;;21.77;38.28;101817.13;5008646;28;4037;-66
2023/06/03 11:49:40;;;;;;;;;;;;;;;21.77;38.36;101817.88;5007338;28;4329;-65
2023/06/03 11:52:07;;;;;;;;;;;;;;;21.77;38.54;101820.00;5003194;28;4540;-66
2023/06/03 11:54:34;;;;;;;;;;;;;;;21.77;38.37;101815.00;5006650;28;3968;-65
2023/06/03 11:57:03;;;;;;;;;;;;;;;21.76;38.49;101810.59;5002994;28;4000;-66
2023/06/03 11:59:41;;;;;;;;;;;;;;;21.78;38.55;101812.84;5019629;28;4197;-65
2023/06/03 12:02:08;;;;;;;;;;;;;;;21.78;38.49;101809.97;5008166;28;4106;-66
2023/06/03 12:04:35;;;;;;;;;;;;;;;21.77;38.47;101809.22;5006772;28;4037;-66
2023/06/03 12:07:09;;;;;;;;;;;;;;;21.77;38.72;101805.59;5001364;28;4228;-65
2023/06/03 12:09:36;;;;;;;;;;;;;;;21.77;38.51;101794.06;5004323;28;4186;-65
2023/06/03 12:12:06;;;;;;;;;;;;;;;21.77;38.52;101788.31;5006349;28;4043;-65
2023/06/03 12:14:32;;;;;;;;;;;;;;;21.77;38.79;101794.06;5006859;28;4041;-66
2023/06/03 12:17:13;;;;;;;;;;;;;;;21.75;38.56;101792.56;5009687;28;4037;-65
2023/06/03 12:19:40;;;;;;;;;;;;;;;21.77;38.80;101776.78;5010300;28;4145;-65
2023/06/03 12:22:06;;;;;;;;;;;;;;;21.76;38.96;101784.66;5005110;28;4082;-66
2023/06/03 12:24:33;;;;;;;;;;;;;;;21.77;38.74;101788.31;5012677;28;4168;-65
2023/06/03 12:27:15;;;;;;;;;;;;;;;21.77;38.77;101788.31;5008325;28;4180;-66
2023/06/03 12:29:43;;;;;;;;;;;;;;;21.77;38.72;101788.31;5006120;28;4156;-66
2023/06/03 12:32:10;;;;;;;;;;;;;;;21.77;39.14;101774.63;5003071;28;3945;-66
2023/06/03 12:34:36;;;;;;;;;;;;;;;21.77;38.84;101776.78;5007795;28;4059;-66
2023/06/03 12:37:03;;;;;;;;;;;;;;;21.77;38.74;101785.41;5008042;28;4016;-66
2023/06/03 12:39:48;;;;;;;;;;;;;;;21.77;38.76;101782.53;5006761;28;4174;-66
2023/06/03 12:42:18;;;;;;;;;;;;;;;21.77;39.06;101771.75;5004884;28;5607;-66
2023/06/03 12:44:48;;;;;;;;;;;;;;;21.77;39.10;101782.53;5007675;28;4104;-66
2023/06/03 12:47:15;;;;;;;;;;;;;;;21.75;39.04;101772.38;5004950;28;4021;-66
2023/06/03 12:49:42;;;;;;;;;;;;;;;21.77;38.88;101765.25;5002336;28;4051;-67
2023/06/03 12:52:09;;;;;;;;;;;;;;;21.78;39.20;101766.72;5003269;28;4119;-66